createdAt,value
2019-02-22T00:03:11.110Z,34
2019-02-22T00:13:16.074Z,38
2019-02-22T00:18:18.495Z,40
2019-02-22T00:23:20.946Z,38
2019-02-22T00:28:23.424Z,36
2019-02-22T00:33:25.853Z,39
2019-02-22T00:38:28.317Z,38
2019-02-22T00:43:30.784Z,33
2019-02-22T00:48:33.243Z,34
2019-02-22T00:53:35.702Z,35
2019-02-22T00:58:38.289Z,35
2019-02-22T01:03:40.654Z,30
2019-02-22T01:08:43.053Z,30
2019-02-22T01:13:45.509Z,31
2019-02-22T01:18:48.056Z,33
2019-02-22T01:23:50.456Z,34
2019-02-22T01:33:55.349Z,34
2019-02-22T01:38:57.828Z,34
2019-02-22T01:44:00.262Z,32
2019-02-22T01:49:02.797Z,33
2019-02-22T01:54:05.184Z,33
2019-02-22T01:59:07.656Z,30
2019-02-22T02:04:10.140Z,36
2019-02-22T02:09:12.589Z,39
2019-02-22T02:14:15.074Z,40
2019-02-22T02:19:17.502Z,33
2019-02-22T02:24:20.095Z,31
2019-02-22T02:29:22.466Z,31
2019-02-22T02:34:24.883Z,29
2019-02-22T02:39:27.362Z,29
2019-02-22T02:44:29.814Z,31
2019-02-22T02:49:32.365Z,30
2019-02-22T02:54:34.780Z,25
2019-02-22T02:59:37.203Z,24
2019-02-22T03:04:39.668Z,23
2019-02-22T03:09:42.081Z,21
2019-02-22T03:14:44.612Z,24
2019-02-22T03:19:46.991Z,23
2019-02-22T03:24:49.453Z,23
2019-02-22T03:29:51.950Z,23
2019-02-22T03:34:54.432Z,18
2019-02-22T03:39:56.950Z,24
2019-02-22T03:44:59.290Z,21
2019-02-22T03:50:01.808Z,21
2019-02-22T03:55:04.220Z,16
2019-02-22T04:00:06.718Z,20
2019-02-22T04:05:09.149Z,22
2019-02-22T04:10:11.601Z,22
2019-02-22T04:15:14.044Z,22
2019-02-22T04:20:16.534Z,24
2019-02-22T04:25:19.000Z,21
2019-02-22T04:30:21.414Z,23
2019-02-22T04:35:24.199Z,23
2019-02-22T04:40:26.368Z,25
2019-02-22T04:45:28.839Z,23
2019-02-22T04:50:31.342Z,23
2019-02-22T04:55:33.715Z,19
2019-02-22T05:00:36.288Z,15
2019-02-22T05:05:38.640Z,16
2019-02-22T05:10:41.090Z,20
2019-02-22T05:15:43.564Z,16
2019-02-22T05:20:46.014Z,14
2019-02-22T05:25:48.595Z,13
2019-02-22T05:30:50.967Z,12
2019-02-22T05:35:53.441Z,9
2019-02-22T05:40:55.846Z,7
2019-02-22T05:45:58.355Z,6
2019-02-22T05:51:00.743Z,6
2019-02-22T05:56:03.195Z,5
2019-02-22T06:01:06.829Z,4
2019-02-22T06:06:08.500Z,3
2019-02-22T06:16:13.029Z,5
2019-02-22T06:21:15.621Z,6
2019-02-22T06:26:17.991Z,7
2019-02-22T06:31:20.417Z,6
2019-02-22T06:36:22.870Z,8
2019-02-22T06:41:25.366Z,9
2019-02-22T06:46:27.962Z,7
2019-02-22T06:51:30.237Z,7
2019-02-22T06:56:32.725Z,7
2019-02-22T07:01:35.159Z,7
2019-02-22T07:06:37.927Z,7
2019-02-22T07:11:40.074Z,7
2019-02-22T07:16:42.529Z,7
2019-02-22T07:21:52.315Z,5
2019-02-22T07:26:47.501Z,6
2019-02-22T07:31:49.941Z,6
2019-02-22T07:36:52.357Z,5
2019-02-22T07:41:54.835Z,6
2019-02-22T07:46:57.283Z,3
2019-02-22T07:51:59.777Z,4
2019-02-22T07:57:02.243Z,5
2019-02-22T08:02:04.700Z,5
2019-02-22T08:07:07.127Z,5
2019-02-22T08:12:09.608Z,5
2019-02-22T08:17:14.582Z,5
2019-02-22T08:22:14.511Z,5
2019-02-22T08:27:16.962Z,5
2019-02-22T08:32:19.485Z,5
2019-02-22T08:37:21.883Z,4
2019-02-22T08:42:24.333Z,4
2019-02-22T08:47:26.798Z,5
2019-02-22T08:52:29.282Z,4
2019-02-22T08:57:31.762Z,4
2019-02-22T09:02:34.174Z,4
2019-02-22T09:07:36.738Z,4
2019-02-22T09:12:39.159Z,4
2019-02-22T09:17:41.702Z,5
2019-02-22T09:22:44.029Z,5
2019-02-22T09:27:46.529Z,5
2019-02-22T09:32:49.075Z,7
2019-02-22T09:37:51.483Z,7
2019-02-22T09:42:53.875Z,8
2019-02-22T09:47:56.295Z,7
2019-02-22T09:52:58.757Z,7
2019-02-22T09:58:01.274Z,6
2019-02-22T10:03:03.674Z,6
2019-02-22T10:08:06.171Z,7
2019-02-22T10:13:08.597Z,6
2019-02-22T10:18:11.105Z,6
2019-02-22T10:23:13.525Z,7
2019-02-22T10:28:17.959Z,8
2019-02-22T10:33:18.421Z,6
2019-02-22T10:38:20.887Z,6
2019-02-22T10:43:23.361Z,7
2019-02-22T10:53:28.279Z,7
2019-02-22T10:58:30.782Z,7
2019-02-22T11:03:33.173Z,7
2019-02-22T11:08:35.648Z,6
2019-02-22T11:13:38.088Z,4
2019-02-22T11:18:40.558Z,5
2019-02-22T11:23:43.046Z,4
2019-02-22T11:28:45.489Z,5
2019-02-22T11:33:47.915Z,6
2019-02-22T11:38:50.425Z,7
2019-02-22T11:43:52.840Z,7
2019-02-22T11:48:55.305Z,8
2019-02-22T11:53:57.793Z,10
2019-02-22T11:59:00.210Z,9
2019-02-22T12:04:02.775Z,10
2019-02-22T12:09:05.139Z,11
2019-02-22T12:14:07.651Z,11
2019-02-22T12:19:10.028Z,12
2019-02-22T12:24:12.515Z,12
2019-02-22T12:29:14.963Z,12
2019-02-22T12:34:17.450Z,12
2019-02-22T12:39:19.954Z,12
2019-02-22T12:44:22.329Z,10
2019-02-22T12:49:24.788Z,11
2019-02-22T12:54:27.232Z,10
2019-02-22T12:59:29.834Z,11
2019-02-22T13:04:32.279Z,10
2019-02-22T13:09:36.830Z,10
2019-02-22T13:14:37.064Z,11
2019-02-22T13:19:39.521Z,12
2019-02-22T13:24:41.974Z,12
2019-02-22T13:29:44.434Z,12
2019-02-22T13:34:46.926Z,11
2019-02-22T13:39:49.387Z,14
2019-02-22T13:44:51.857Z,16
2019-02-22T13:49:54.273Z,17
2019-02-22T13:54:56.801Z,17
2019-02-22T13:59:59.188Z,18
2019-02-22T14:05:01.801Z,17
2019-02-22T14:10:04.116Z,15
2019-02-22T14:15:06.566Z,17
2019-02-22T14:20:09.010Z,17
2019-02-22T14:25:11.590Z,15
2019-02-22T14:30:13.919Z,16
2019-02-22T14:35:16.534Z,17
2019-02-22T14:40:18.861Z,17
2019-02-22T14:45:21.321Z,18
2019-02-22T14:50:23.803Z,18
2019-02-22T14:55:26.218Z,18
2019-02-22T15:00:28.748Z,17
2019-02-22T15:05:31.202Z,17
2019-02-22T15:10:33.612Z,16
2019-02-22T15:15:36.124Z,18
2019-02-22T15:20:38.546Z,17
2019-02-22T15:25:41.033Z,17
2019-02-22T15:30:45.205Z,19
2019-02-22T15:35:45.973Z,17
2019-02-22T15:40:48.404Z,15
2019-02-22T15:45:50.897Z,15
2019-02-22T15:50:53.334Z,15
2019-02-22T15:55:55.796Z,16
2019-02-22T16:00:58.251Z,13
2019-02-22T16:06:00.721Z,14
2019-02-22T16:11:03.209Z,14
2019-02-22T16:16:05.636Z,15
2019-02-22T16:21:08.100Z,14
2019-02-22T16:26:10.575Z,15
2019-02-22T16:31:13.077Z,14
2019-02-22T16:36:15.508Z,16
2019-02-22T16:41:18.008Z,16
2019-02-22T16:46:20.561Z,14
2019-02-22T16:51:22.888Z,17
2019-02-22T16:56:25.463Z,16
2019-02-22T17:01:28.062Z,16
2019-02-22T17:06:30.292Z,15
2019-02-22T17:11:32.759Z,14
2019-02-22T17:16:45.184Z,15
2019-02-22T17:21:37.721Z,13
2019-02-22T17:26:40.152Z,13
2019-02-22T17:31:42.625Z,12
2019-02-22T17:36:45.091Z,11
2019-02-22T17:41:47.573Z,10
2019-02-22T17:46:57.509Z,11
2019-02-22T17:51:52.475Z,12
2019-02-22T17:56:54.984Z,13
2019-02-22T18:01:57.505Z,13
2019-02-22T18:06:59.883Z,13
2019-02-22T18:12:02.395Z,14
2019-02-22T18:17:08.252Z,14
2019-02-22T18:22:07.295Z,15
2019-02-22T18:27:09.752Z,14
2019-02-22T18:32:12.222Z,13
2019-02-22T18:37:14.641Z,16
2019-02-22T18:42:17.152Z,16
2019-02-22T18:47:19.964Z,15
2019-02-22T18:52:22.066Z,17
2019-02-22T18:57:24.525Z,16
2019-02-22T19:02:26.943Z,14
2019-02-22T19:07:29.403Z,15
2019-02-22T19:12:31.856Z,15
2019-02-22T19:22:36.781Z,17
2019-02-22T19:27:39.247Z,15
2019-02-22T19:32:41.751Z,14
2019-02-22T19:37:44.195Z,16
2019-02-22T19:42:46.669Z,16
2019-02-22T19:47:49.108Z,15
2019-02-22T19:52:51.588Z,14
2019-02-22T19:57:54.009Z,16
2019-02-22T20:02:56.495Z,19
2019-02-22T20:07:58.930Z,17
2019-02-22T20:13:01.415Z,18
2019-02-22T20:18:03.841Z,20
2019-02-22T20:23:06.316Z,17
2019-02-22T20:28:08.787Z,18
2019-02-22T20:33:11.241Z,18
2019-02-22T20:38:13.681Z,20
2019-02-22T20:43:16.163Z,22
2019-02-22T20:48:18.595Z,22
2019-02-22T20:53:21.033Z,22
2019-02-22T20:58:23.542Z,21
2019-02-22T21:03:25.972Z,22
2019-02-22T21:08:28.411Z,23
2019-02-22T21:13:30.948Z,21
2019-02-22T21:18:33.331Z,22
2019-02-22T21:23:35.833Z,23
2019-02-22T21:33:40.690Z,24
2019-02-22T21:38:43.163Z,25
2019-02-22T21:43:45.618Z,24
2019-02-22T21:48:48.109Z,26
2019-02-22T21:53:50.598Z,22
2019-02-22T22:49:17.560Z,24
2019-02-22T22:54:19.993Z,20
2019-02-22T22:59:22.466Z,20
2019-02-22T23:04:24.924Z,21
2019-02-22T23:09:27.386Z,21
2019-02-22T23:14:29.897Z,19
2019-02-22T23:19:32.319Z,22
2019-02-22T23:24:34.778Z,20
2019-02-22T23:29:37.206Z,23
2019-02-22T23:34:39.701Z,21
2019-02-22T23:39:42.120Z,21
2019-02-22T23:44:44.576Z,22
2019-02-22T23:49:47.029Z,19
2019-02-22T23:54:49.482Z,26
2019-02-22T23:59:51.943Z,24
